createdAt,value
2023-01-02T00:02:54.217Z,5.73
2023-01-02T00:06:57.420Z,5.70
2023-01-02T00:11:01.857Z,5.70
2023-01-02T00:15:05.304Z,5.69
2023-01-02T00:19:08.805Z,5.68
2023-01-02T00:23:12.671Z,5.67
2023-01-02T00:27:17.067Z,5.67
2023-01-02T00:31:20.079Z,5.66
2023-01-02T00:35:23.092Z,5.66
2023-01-02T00:39:26.514Z,5.66
2023-01-02T00:43:31.378Z,5.63
2023-01-02T00:47:34.487Z,5.63
2023-01-02T00:51:37.472Z,5.62
2023-01-02T00:55:40.816Z,5.61
2023-01-02T00:59:45.310Z,5.60
2023-01-02T01:03:48.404Z,5.58
2023-01-02T01:07:51.481Z,5.59
2023-01-02T01:11:54.555Z,5.54
2023-01-02T01:16:05.558Z,5.54
2023-01-02T01:20:10.124Z,5.55
2023-01-02T01:24:13.407Z,5.58
2023-01-02T01:28:16.483Z,5.58
2023-01-02T01:32:20.897Z,5.60
2023-01-02T01:36:25.446Z,5.59
2023-01-02T01:40:28.465Z,5.60
2023-01-02T01:44:46.954Z,5.61
2023-01-02T01:48:56.019Z,5.61
2023-01-02T01:53:04.531Z,5.60
2023-01-02T01:57:15.553Z,5.53
2023-01-02T02:01:19.328Z,5.49
2023-01-02T02:05:27.466Z,5.47
2023-01-02T02:09:36.730Z,5.46
2023-01-02T02:13:40.780Z,5.45
2023-01-02T02:17:57.447Z,5.44
2023-01-02T02:22:16.530Z,5.42
2023-01-02T02:26:52.102Z,5.40
2023-01-02T02:31:00.141Z,5.38
2023-01-02T02:35:12.902Z,5.37
2023-01-02T02:39:26.453Z,5.36
2023-01-02T02:43:41.969Z,5.35
2023-01-02T02:47:53.141Z,5.31
2023-01-02T02:52:06.471Z,5.28
2023-01-02T02:56:12.476Z,5.27
2023-01-02T03:00:18.886Z,5.24
2023-01-02T03:04:24.297Z,5.24
2023-01-02T03:08:35.003Z,5.21
2023-01-02T03:12:44.999Z,5.21
2023-01-02T03:16:54.033Z,5.19
2023-01-02T03:21:05.604Z,5.18
2023-01-02T03:25:12.063Z,5.15
2023-01-02T03:29:19.267Z,5.13
2023-01-02T03:33:27.185Z,5.10
2023-01-02T03:37:35.544Z,5.09
2023-01-02T03:41:44.543Z,5.11
2023-01-02T03:45:52.480Z,5.12
2023-01-02T03:50:00.540Z,5.15
2023-01-02T03:54:06.472Z,5.13
2023-01-02T03:58:17.848Z,5.12
2023-01-02T04:02:27.815Z,5.10
2023-01-02T04:06:36.319Z,5.10
2023-01-02T04:10:43.832Z,5.05
2023-01-02T04:14:50.727Z,5.05
2023-01-02T04:18:57.808Z,5.03
2023-01-02T04:23:03.944Z,5.01
2023-01-02T04:27:14.077Z,5.00
2023-01-02T04:31:20.552Z,4.96
2023-01-02T04:35:25.462Z,4.96
2023-01-02T04:39:29.537Z,4.95
2023-01-02T04:43:34.480Z,4.94
2023-01-02T04:47:37.468Z,4.95
2023-01-02T04:51:40.668Z,4.94
2023-01-02T04:55:43.632Z,4.95
2023-01-02T04:59:48.173Z,4.93
2023-01-02T05:03:52.752Z,4.95
2023-01-02T05:07:56.276Z,4.98
2023-01-02T05:11:59.294Z,4.98
2023-01-02T05:16:04.466Z,4.97
2023-01-02T05:20:10.660Z,4.95
2023-01-02T05:24:13.712Z,4.96
2023-01-02T05:28:16.655Z,4.93
2023-01-02T05:32:21.034Z,4.91
2023-01-02T05:36:24.938Z,4.90
2023-01-02T05:40:27.953Z,4.89
2023-01-02T05:44:31.096Z,4.86
2023-01-02T05:48:35.600Z,4.86
2023-01-02T05:52:44.911Z,4.86
2023-01-02T05:56:49.111Z,4.86
2023-01-02T06:00:53.151Z,4.81
2023-01-02T06:04:57.493Z,4.74
2023-01-02T06:09:00.985Z,4.72
2023-01-02T06:13:03.942Z,4.73
2023-01-02T06:17:07.147Z,4.75
2023-01-02T06:21:13.680Z,4.76
2023-01-02T06:25:16.864Z,4.74
2023-01-02T06:29:20.061Z,4.69
2023-01-02T06:33:23.019Z,4.64
2023-01-02T06:37:27.383Z,4.61
2023-01-02T06:41:32.279Z,4.58
2023-01-02T06:45:35.249Z,4.58
2023-01-02T06:49:38.510Z,4.58
2023-01-02T06:53:44.154Z,4.58
2023-01-02T06:57:47.117Z,4.53
2023-01-02T07:01:50.252Z,4.53
2023-01-02T07:05:53.262Z,4.55
2023-01-02T07:09:58.231Z,4.56
2023-01-02T07:14:01.240Z,4.55
2023-01-02T07:18:04.575Z,4.53
2023-01-02T07:22:07.630Z,4.52
2023-01-02T07:26:12.656Z,4.45
2023-01-02T07:30:16.316Z,4.42
2023-01-02T07:34:19.322Z,4.39
2023-01-02T07:38:22.335Z,4.36
2023-01-02T07:42:26.666Z,4.38
2023-01-02T07:46:29.887Z,4.35
2023-01-02T07:50:33.258Z,4.35
2023-01-02T07:54:36.211Z,4.33
2023-01-02T07:58:40.575Z,4.35
2023-01-02T08:02:43.800Z,4.34
2023-01-02T08:06:46.943Z,4.35
2023-01-02T08:10:49.943Z,4.35
2023-01-02T08:14:55.043Z,4.35
2023-01-02T08:18:58.038Z,4.34
2023-01-02T08:23:01.212Z,4.36
2023-01-02T08:27:04.348Z,4.36
2023-01-02T08:31:11.701Z,4.38
2023-01-02T08:35:14.743Z,4.39
2023-01-02T08:39:17.803Z,4.38
2023-01-02T08:43:20.804Z,4.35
2023-01-02T08:47:25.379Z,4.35
2023-01-02T08:51:28.871Z,4.33
2023-01-02T08:55:32.093Z,4.36
2023-01-02T08:59:35.107Z,4.33
2023-01-02T09:03:39.587Z,4.33
2023-01-02T09:07:43.270Z,4.32
2023-01-02T09:11:49.057Z,4.33
2023-01-02T09:15:52.315Z,4.34
2023-01-02T09:19:56.845Z,4.38
2023-01-02T09:23:59.990Z,4.42
2023-01-02T09:28:03.544Z,4.46
2023-01-02T09:32:06.889Z,4.57
2023-01-02T09:36:13.975Z,4.63
2023-01-02T09:40:17.145Z,4.65
2023-01-02T09:44:25.714Z,4.71
2023-01-02T09:48:34.185Z,4.73
2023-01-02T09:52:42.627Z,4.71
2023-01-02T09:56:51.273Z,4.68
2023-01-02T10:00:54.775Z,4.70
2023-01-02T10:05:15.823Z,4.75
2023-01-02T10:09:31.426Z,4.74
2023-01-02T10:14:17.221Z,4.79
2023-01-02T10:18:16.979Z,4.82
2023-01-02T10:22:24.126Z,4.80
2023-01-02T10:26:32.982Z,4.81
2023-01-02T10:30:41.667Z,4.89
2023-01-02T10:34:52.105Z,4.88
2023-01-02T10:39:00.204Z,4.86
2023-01-02T10:43:04.897Z,4.82
2023-01-02T10:47:15.167Z,4.77
2023-01-02T10:51:19.120Z,4.77
2023-01-02T10:55:33.722Z,4.76
2023-01-02T10:59:38.797Z,4.76
2023-01-02T11:03:42.125Z,4.75
2023-01-02T11:07:49.465Z,4.70
2023-01-02T11:11:54.902Z,4.70
2023-01-02T11:16:01.852Z,4.67
2023-01-02T11:20:05.711Z,4.68
2023-01-02T11:24:15.742Z,4.70
2023-01-02T11:28:22.249Z,4.73
2023-01-02T11:32:30.409Z,4.74
2023-01-02T11:36:34.316Z,4.75
2023-01-02T11:40:37.704Z,4.77
2023-01-02T11:44:51.686Z,4.83
2023-01-02T11:49:03.297Z,4.86
2023-01-02T11:53:15.751Z,4.83
2023-01-02T11:57:30.215Z,4.83
2023-01-02T12:01:47.507Z,4.82
2023-01-02T12:06:08.024Z,4.85
2023-01-02T12:10:22.102Z,4.87
2023-01-02T12:14:36.613Z,4.81
2023-01-02T12:18:53.587Z,4.82
2023-01-02T12:23:28.901Z,4.81
2023-01-02T12:27:41.958Z,4.84
2023-01-02T12:32:09.381Z,4.85
2023-01-02T12:36:35.143Z,4.86
2023-01-02T12:40:49.549Z,4.92
2023-01-02T12:44:55.321Z,4.95
2023-01-02T12:49:23.883Z,4.97
2023-01-02T12:53:43.282Z,4.97
2023-01-02T12:57:56.064Z,5.01
2023-01-02T13:02:07.051Z,5.05
2023-01-02T13:06:44.039Z,5.09
2023-01-02T13:10:41.482Z,5.10
2023-01-02T13:14:51.600Z,5.11
2023-01-02T13:19:08.486Z,5.14
2023-01-02T13:23:28.196Z,5.13
2023-01-02T13:27:31.625Z,5.18
2023-01-02T13:31:48.758Z,5.20
2023-01-02T13:35:52.969Z,5.22
2023-01-02T13:39:59.038Z,5.20
2023-01-02T13:44:03.606Z,5.21
2023-01-02T13:48:20.681Z,5.21
2023-01-02T13:52:24.602Z,5.24
2023-01-02T13:56:29.900Z,5.27
2023-01-02T14:00:35.981Z,5.29
2023-01-02T14:04:42.361Z,5.29
2023-01-02T14:09:10.711Z,5.32
2023-01-02T14:13:23.037Z,5.37
2023-01-02T14:17:38.910Z,5.36
2023-01-02T14:21:47.171Z,5.36
2023-01-02T14:25:51.268Z,5.36
2023-01-02T14:29:57.951Z,5.32
2023-01-02T14:34:02.078Z,5.31
2023-01-02T14:38:17.179Z,5.28
2023-01-02T14:42:45.832Z,5.28
2023-01-02T14:46:51.117Z,5.26
2023-01-02T14:50:56.521Z,5.26
2023-01-02T14:55:06.995Z,5.26
2023-01-02T14:59:17.045Z,5.26
2023-01-02T15:03:29.912Z,5.25
2023-01-02T15:07:36.656Z,5.22
2023-01-02T15:12:11.433Z,5.25
2023-01-02T15:16:14.925Z,5.24
2023-01-02T15:20:21.294Z,5.22
2023-01-02T15:24:27.163Z,5.24
2023-01-02T15:28:33.247Z,5.25
2023-01-02T15:32:36.595Z,5.25
2023-01-02T15:36:42.334Z,5.22
2023-01-02T15:40:46.225Z,5.19
2023-01-02T15:45:08.306Z,5.20
2023-01-02T15:49:14.573Z,5.21
2023-01-02T15:53:24.388Z,5.25
2023-01-02T15:57:31.906Z,5.26
2023-01-02T16:01:45.843Z,5.27
2023-01-02T16:05:52.811Z,5.29
2023-01-02T16:09:57.585Z,5.33
2023-01-02T16:14:22.510Z,5.35
2023-01-02T16:18:27.409Z,5.42
2023-01-02T16:22:36.603Z,5.45
2023-01-02T16:26:42.906Z,5.51
2023-01-02T16:30:47.473Z,5.58
2023-01-02T16:35:02.759Z,5.61
2023-01-02T16:39:26.503Z,5.65
2023-01-02T16:43:30.961Z,5.68
2023-01-02T16:47:40.066Z,5.69
2023-01-02T16:51:45.239Z,5.72
2023-01-02T16:55:48.526Z,5.75
2023-01-02T16:59:51.591Z,5.79
2023-01-02T17:03:54.560Z,5.81
2023-01-02T17:07:58.980Z,5.82
2023-01-02T17:12:02.290Z,5.80
2023-01-02T17:16:06.840Z,5.74
2023-01-02T17:20:11.382Z,5.72
2023-01-02T17:24:15.980Z,5.73
2023-01-02T17:28:19.201Z,5.70
2023-01-02T17:32:22.205Z,5.65
2023-01-02T17:36:25.421Z,5.69
2023-01-02T17:40:29.831Z,5.72
2023-01-02T17:44:32.813Z,5.72
2023-01-02T17:48:35.850Z,5.72
2023-01-02T17:52:39.141Z,5.71
2023-01-02T17:56:43.683Z,5.73
2023-01-02T18:00:46.742Z,5.72
2023-01-02T18:04:54.902Z,5.71
2023-01-02T18:09:00.021Z,5.75
2023-01-02T18:13:06.367Z,5.76
2023-01-02T18:17:17.605Z,5.75
2023-01-02T18:21:22.366Z,5.68
2023-01-02T18:25:28.092Z,5.65
2023-01-02T18:29:32.544Z,5.64
2023-01-02T18:33:36.002Z,5.65
2023-01-02T18:37:41.132Z,5.64
2023-01-02T18:41:44.285Z,5.64
2023-01-02T18:45:52.166Z,5.64
2023-01-02T18:49:57.685Z,5.64
2023-01-02T18:54:00.806Z,5.63
2023-01-02T18:58:07.739Z,5.61
2023-01-02T19:02:27.597Z,5.54
2023-01-02T19:06:43.850Z,5.47
2023-01-02T19:10:49.821Z,5.46
2023-01-02T19:14:54.949Z,5.40
2023-01-02T19:18:59.477Z,5.38
2023-01-02T19:23:02.558Z,5.37
2023-01-02T19:27:20.634Z,5.37
2023-01-02T19:31:24.238Z,5.36
2023-01-02T19:35:57.457Z,5.41
2023-01-02T19:40:02.939Z,5.42
2023-01-02T19:44:06.146Z,5.40
2023-01-02T19:48:12.515Z,5.40
2023-01-02T19:52:20.166Z,5.46
2023-01-02T19:56:23.364Z,5.54
2023-01-02T20:00:26.345Z,5.55
2023-01-02T20:04:29.854Z,5.52
2023-01-02T20:08:34.695Z,5.47
2023-01-02T20:12:41.113Z,5.42
2023-01-02T20:16:44.144Z,5.43
2023-01-02T20:20:47.297Z,5.42
2023-01-02T20:24:51.747Z,5.44
2023-01-02T20:28:54.776Z,5.48
2023-01-02T20:32:57.737Z,5.51
2023-01-02T20:37:00.779Z,5.54
2023-01-02T20:41:05.296Z,5.57
2023-01-02T20:45:13.727Z,5.56
2023-01-02T20:49:17.594Z,5.54
2023-01-02T20:53:20.635Z,5.54
2023-01-02T20:57:24.974Z,5.56
2023-01-02T21:01:28.270Z,5.57
2023-01-02T21:05:31.359Z,5.49
2023-01-02T21:09:34.908Z,5.41
2023-01-02T21:13:39.801Z,5.31
2023-01-02T21:17:42.763Z,5.16
2023-01-02T21:21:45.907Z,5.05
2023-01-02T21:25:50.141Z,4.95
2023-01-02T21:29:55.585Z,4.86
2023-01-02T21:33:58.819Z,4.75
2023-01-02T21:38:02.487Z,4.68
2023-01-02T21:42:17.545Z,4.63
2023-01-02T21:46:22.308Z,4.61
2023-01-02T21:50:26.141Z,4.63
2023-01-02T21:54:29.237Z,4.62
2023-01-02T21:58:32.301Z,4.64
2023-01-02T22:02:38.812Z,4.60
2023-01-02T22:07:12.458Z,4.55
2023-01-02T22:11:23.234Z,4.48
2023-01-02T22:15:26.506Z,4.47
2023-01-02T22:19:31.716Z,4.44
2023-01-02T22:23:36.895Z,4.41
2023-01-02T22:27:40.443Z,4.36
2023-01-02T22:31:43.992Z,4.36
2023-01-02T22:35:48.388Z,4.33
2023-01-02T22:39:51.491Z,4.35
2023-01-02T22:43:54.703Z,4.36
2023-01-02T22:48:00.015Z,4.33
2023-01-02T22:52:07.271Z,4.33
2023-01-02T22:56:13.962Z,4.35
2023-01-02T23:00:18.323Z,4.38
2023-01-02T23:04:23.567Z,4.38
2023-01-02T23:08:28.013Z,4.37
2023-01-02T23:12:31.036Z,4.36
2023-01-02T23:16:52.053Z,4.35
2023-01-02T23:20:55.166Z,4.34
2023-01-02T23:25:00.690Z,4.36
2023-01-02T23:29:07.057Z,4.35
2023-01-02T23:33:11.250Z,4.32
2023-01-02T23:37:14.253Z,4.27
2023-01-02T23:41:19.532Z,4.21
2023-01-02T23:45:22.521Z,4.17
2023-01-02T23:49:26.035Z,4.15
2023-01-02T23:53:29.403Z,4.13
2023-01-02T23:57:35.011Z,4.16
